Time;durP1;ratioP1;P1;durP2;ratioP2;P2;SDS_P1;SDS_P2;PMS_P1;PMS_P2;Temp;Humidity;BMP_temperature;BMP_pressure;BME280_temperature;BME280_humidity;BME280_pressure;Samples;Min_cycle;Max_cycle;Signal;HPM_P1;HPM_P2
2023/12/30 00:00:56;;;;;;;2.67;1.80;;;;;;;11.14;57.91;99537.31;5034585;27;101252;-83
2023/12/30 00:03:22;;;;;;;2.95;1.85;;;;;;;10.94;57.86;99512.03;5033044;27;98227;-84
2023/12/30 00:05:47;;;;;;;6.10;2.28;;;;;;;11.13;58.37;99538.25;5034400;27;97190;-83
2023/12/30 00:08:13;;;;;;;3.72;2.60;;;;;;;11.16;57.86;99543.34;5001882;27;97478;-83
2023/12/30 00:10:38;;;;;;;4.53;2.47;;;;;;;11.10;58.29;99545.34;5035369;27;98229;-82
2023/12/30 00:13:04;;;;;;;4.28;2.47;;;;;;;11.03;57.95;99543.13;5003134;27;101404;-83
2023/12/30 00:15:29;;;;;;;5.82;2.40;;;;;;;11.12;58.07;99545.28;5034397;27;96744;-83
2023/12/30 00:17:55;;;;;;;2.63;1.88;;;;;;;11.06;58.01;99541.19;5011235;27;96929;-83
2023/12/30 00:20:20;;;;;;;4.50;2.22;;;;;;;11.08;58.37;99548.97;5018295;27;100181;-83
2023/12/30 00:22:46;;;;;;;5.35;2.25;;;;;;;11.06;58.15;99551.69;5014003;27;99565;-83
2023/12/30 00:25:11;;;;;;;3.00;1.77;;;;;;;11.06;58.08;99549.06;5017373;27;96750;-83
2023/12/30 00:27:37;;;;;;;3.13;2.03;;;;;;;11.10;58.04;99545.34;5034216;27;98050;-83
2023/12/30 00:30:03;;;;;;;3.65;2.13;;;;;;;11.03;57.97;99525.56;4998956;27;101113;-83
2023/12/30 00:32:29;;;;;;;2.50;1.80;;;;;;;11.20;57.80;99544.91;5034826;27;97297;-83
2023/12/30 00:34:54;;;;;;;2.45;1.75;;;;;;;11.23;57.84;99535.13;5016956;27;96839;-83
2023/12/30 00:37:20;;;;;;;3.53;1.85;;;;;;;11.16;57.48;99506.59;5016517;27;97963;-84
2023/12/30 00:39:47;;;;;;;4.10;2.15;;;;;;;11.04;57.71;99501.00;5034025;27;97861;-83
2023/12/30 00:42:12;;;;;;;3.83;2.35;;;;;;;10.97;57.66;99497.00;5000500;27;101304;-83
2023/12/30 00:44:38;;;;;;;3.63;2.20;;;;;;;11.08;58.07;99528.84;5052891;27;96773;-83
2023/12/30 00:47:04;;;;;;;3.35;2.22;;;;;;;11.01;58.15;99527.41;5033037;27;97475;-83
2023/12/30 00:49:30;;;;;;;3.45;2.33;;;;;;;11.03;57.67;99525.56;5034998;27;98003;-83
2023/12/30 00:51:57;;;;;;;2.95;2.03;;;;;;;10.95;58.09;99522.47;5016801;27;101665;-82
2023/12/30 00:54:23;;;;;;;4.32;1.88;;;;;;;10.93;58.21;99526.94;5017571;27;96914;-83
2023/12/30 00:56:48;;;;;;;3.45;2.20;;;;;;;10.97;57.94;99536.38;5034490;27;97089;-83
2023/12/30 00:59:14;;;;;;;3.47;1.92;;;;;;;10.98;57.88;99526.72;5009335;27;101391;-82
2023/12/30 01:01:39;;;;;;;3.42;1.90;;;;;;;10.94;58.23;99533.91;5014838;27;97582;-83
2023/12/30 01:04:05;;;;;;;3.08;2.00;;;;;;;11.02;58.10;99528.25;5017078;27;96881;-83
2023/12/30 01:06:30;;;;;;;2.72;1.83;;;;;;;11.01;57.94;99530.03;5033478;27;97185;-83
2023/12/30 01:08:56;;;;;;;4.45;2.38;;;;;;;11.01;58.13;99537.91;5015564;27;101075;-83
2023/12/30 01:11:21;;;;;;;3.17;1.98;;;;;;;11.10;57.81;99541.88;5051960;27;98449;-83
2023/12/30 01:13:47;;;;;;;3.33;1.98;;;;;;;11.10;57.76;99532.22;5033546;27;96849;-83
2023/12/30 01:16:13;;;;;;;2.60;1.75;;;;;;;11.07;57.87;99537.63;5034007;27;97251;-83
2023/12/30 01:18:40;;;;;;;2.50;1.90;;;;;;;10.93;57.92;99537.44;5015442;27;100874;-83
2023/12/30 01:21:05;;;;;;;2.25;1.70;;;;;;;10.86;58.24;99538.66;5050845;27;97963;-83
2023/12/30 01:23:31;;;;;;;5.88;2.28;;;;;;;10.84;58.10;99533.47;5015850;27;96956;-83
2023/12/30 01:25:56;;;;;;;2.65;1.95;;;;;;;10.91;58.03;99534.06;5030564;27;97080;-83
2023/12/30 01:28:22;;;;;;;3.22;2.05;;;;;;;10.88;57.99;99536.81;5032523;27;98525;-83
2023/12/30 01:30:47;;;;;;;3.45;1.95;;;;;;;10.89;58.16;99530.63;5005401;27;101606;-83
2023/12/30 01:33:13;;;;;;;2.45;1.92;;;;;;;10.92;58.39;99530.50;5007460;27;96912;-83
2023/12/30 01:35:38;;;;;;;3.65;1.88;;;;;;;10.84;58.18;99520.34;5051413;27;97378;-83
2023/12/30 01:38:04;;;;;;;2.85;2.00;;;;;;;10.84;58.08;99517.72;5016678;27;101241;-83
2023/12/30 01:40:30;;;;;;;3.95;2.20;;;;;;;10.83;58.27;99515.19;5000628;27;101832;-82
2023/12/30 01:42:56;;;;;;;2.55;1.90;;;;;;;10.70;58.28;99487.81;5033344;27;96811;-83
2023/12/30 01:45:22;;;;;;;2.65;1.90;;;;;;;10.80;58.68;99510.09;5000947;27;97380;-83
2023/12/30 01:47:47;;;;;;;7.38;2.53;;;;;;;10.76;58.71;99504.13;5016055;27;101688;-83
2023/12/30 01:50:13;;;;;;;3.22;2.00;;;;;;;10.69;58.77;99504.47;5032614;27;97986;-83
2023/12/30 01:52:38;;;;;;;2.97;1.90;;;;;;;10.62;58.88;99501.31;5032045;27;96834;-83
2023/12/30 01:55:05;;;;;;;3.95;2.53;;;;;;;10.59;59.12;99509.34;5015338;27;96946;-83
2023/12/30 01:57:31;;;;;;;3.78;2.33;;;;;;;10.54;59.39;99483.28;5016273;27;98158;-83
2023/12/30 01:59:57;;;;;;;4.82;2.08;;;;;;;10.59;59.26;99509.34;5016306;27;101075;-83
2023/12/30 02:02:23;;;;;;;4.35;2.13;;;;;;;10.55;58.56;99505.13;5032927;27;97302;-83
2023/12/30 02:04:49;;;;;;;3.08;1.88;;;;;;;10.57;59.28;99501.50;5033407;27;96837;-83
2023/12/30 02:07:15;;;;;;;4.25;2.35;;;;;;;10.50;59.38;99489.63;5007632;27;101244;-83
2023/12/30 02:09:41;;;;;;;4.95;1.90;;;;;;;10.46;59.16;99492.44;5033611;27;98023;-83
2023/12/30 02:12:07;;;;;;;5.45;1.85;;;;;;;10.47;59.59;99488.88;5016619;27;97166;-83
2023/12/30 02:14:33;;;;;;;3.45;2.13;;;;;;;10.53;59.17;99491.22;5033789;27;96769;-83
2023/12/30 02:16:59;;;;;;;3.05;2.30;;;;;;;10.47;59.24;99486.25;5014142;27;97424;-83
2023/12/30 02:19:24;;;;;;;4.60;2.42;;;;;;;10.27;59.47;99467.06;5024247;27;99702;-82
2023/12/30 02:21:51;;;;;;;2.85;1.92;;;;;;;10.33;59.73;99473.81;5016024;27;96737;-83
2023/12/30 02:24:18;;;;;;;4.00;2.13;;;;;;;10.27;60.04;99477.56;5016890;27;96811;-83
2023/12/30 02:26:44;;;;;;;2.53;1.75;;;;;;;10.25;60.09;99479.38;5015408;27;100972;-83
2023/12/30 02:29:09;;;;;;;3.72;2.05;;;;;;;10.27;59.92;99481.94;5010916;27;101376;-83
2023/12/30 02:31:37;;;;;;;5.57;1.90;;;;;;;10.30;59.65;99473.94;5032778;27;97153;-83
2023/12/30 02:34:02;;;;;;;3.25;2.35;;;;;;;10.18;59.80;99480.56;5016332;27;97392;-82
2023/12/30 02:36:28;;;;;;;2.17;1.63;;;;;;;10.26;59.84;99481.06;5032709;27;98152;-83
2023/12/30 02:38:53;;;;;;;3.25;2.28;;;;;;;10.16;60.08;99474.53;5027124;27;98471;-83
2023/12/30 02:41:19;;;;;;;2.75;1.75;;;;;;;10.13;59.87;99451.94;5015218;27;97927;-83
2023/12/30 02:43:58;;;;;;;2.65;1.83;;;;;;;10.13;59.99;99478.16;5033188;27;96906;-83
2023/12/30 02:46:24;;;;;;;2.90;1.95;;;;;;;10.20;59.67;99478.72;5015798;27;101375;-83
2023/12/30 02:48:49;;;;;;;4.57;2.25;;;;;;;10.36;60.25;99495.50;5052385;27;98375;-82
2023/12/30 02:51:16;;;;;;;3.75;2.28;;;;;;;10.35;59.84;99483.28;5018683;27;96842;-83
2023/12/30 02:53:42;;;;;;;4.63;1.92;;;;;;;10.31;59.73;99486.97;5019387;27;96940;-83
2023/12/30 02:56:17;;;;;;;2.92;2.13;;;;;;;10.16;59.47;99462.28;5019143;27;100353;-83
2023/12/30 02:58:43;;;;;;;2.80;1.75;;;;;;;10.36;59.43;99473.66;5019793;27;97886;-83
2023/12/30 03:01:08;;;;;;;2.00;1.45;;;;;;;10.30;59.53;99479.19;5001600;27;96908;-83
2023/12/30 03:03:34;;;;;;;1.73;1.30;;;;;;;10.26;59.50;99467.94;5018786;27;97386;-82
2023/12/30 03:06:00;;;;;;;1.98;1.45;;;;;;;10.34;59.14;99470.25;5018096;27;100919;-83
2023/12/30 03:08:26;;;;;;;2.40;1.50;;;;;;;10.43;59.22;99475.06;5017815;27;98181;-83
2023/12/30 03:10:51;;;;;;;2.08;1.52;;;;;;;10.42;59.22;99470.75;5002201;27;96822;-83
2023/12/30 03:13:16;;;;;;;2.95;1.60;;;;;;;10.33;59.20;99468.56;5054033;27;97095;-83
2023/12/30 03:15:42;;;;;;;2.20;1.60;;;;;;;10.38;59.35;99477.91;5001189;27;101111;-83
2023/12/30 03:18:08;;;;;;;3.47;1.40;;;;;;;10.22;59.52;99469.00;5001661;27;101902;-83
2023/12/30 03:20:34;;;;;;;3.17;2.00;;;;;;;10.30;59.65;99479.19;5020205;27;96919;-82
2023/12/30 03:22:59;;;;;;;3.90;2.05;;;;;;;10.23;59.81;99475.94;5019643;27;96905;-83
2023/12/30 03:25:26;;;;;;;5.00;2.08;;;;;;;10.14;59.91;99473.75;5021169;27;101945;-82
2023/12/30 03:27:52;;;;;;;5.93;1.67;;;;;;;10.07;60.38;99478.44;5001864;27;101300;-83
2023/12/30 03:30:17;;;;;;;2.58;1.65;;;;;;;10.04;59.96;99469.88;5054022;27;97209;-83
2023/12/30 03:32:45;;;;;;;2.67;1.50;;;;;;;10.02;60.59;99469.91;5018219;27;97412;-84
2023/12/30 03:35:10;;;;;;;2.67;1.90;;;;;;;9.95;60.17;99468.50;5017378;27;100908;-83
2023/12/30 03:37:36;;;;;;;3.75;1.70;;;;;;;9.99;60.31;99472.69;5017704;27;101147;-83
2023/12/30 03:40:01;;;;;;;3.22;1.92;;;;;;;10.04;60.41;99482.97;5036363;27;96824;-83
2023/12/30 03:42:27;;;;;;;3.00;2.05;;;;;;;9.94;60.21;99479.91;5035421;27;97395;-84
2023/12/30 03:44:52;;;;;;;5.32;1.83;;;;;;;9.89;60.74;99471.38;5002947;27;101778;-84
2023/12/30 03:47:18;;;;;;;3.85;1.95;;;;;;;9.96;60.27;99470.19;5009935;27;101357;-83
2023/12/30 03:49:44;;;;;;;4.57;1.92;;;;;;;9.88;60.66;99480.16;5019422;27;97387;-83
2023/12/30 03:52:09;;;;;;;3.08;2.15;;;;;;;9.83;60.62;99476.91;5009356;28;96827;-83
2023/12/30 03:54:34;;;;;;;5.85;2.40;;;;;;;9.83;60.74;99471.66;5019883;28;98027;-83
2023/12/30 03:57:00;;;;;;;3.85;1.73;;;;;;;9.87;60.72;99487.19;5021516;27;98054;-83
2023/12/30 03:59:25;;;;;;;4.93;1.85;;;;;;;9.86;60.82;99482.88;5006306;28;96778;-83
2023/12/30 04:01:51;;;;;;;3.15;2.00;;;;;;;9.62;60.61;99457.72;5021983;28;96874;-83
2023/12/30 04:04:16;;;;;;;3.17;2.10;;;;;;;9.74;60.66;99489.50;5019481;28;101326;-83
2023/12/30 04:06:43;;;;;;;3.70;1.77;;;;;;;9.72;61.25;99495.72;5003414;28;100985;-82
2023/12/30 04:09:09;;;;;;;5.03;1.90;;;;;;;9.74;60.98;99499.13;5003297;28;97406;-83
2023/12/30 04:11:34;;;;;;;3.75;1.75;;;;;;;9.73;60.96;99492.19;5004066;28;96844;-82
2023/12/30 04:14:00;;;;;;;4.75;1.98;;;;;;;9.68;61.10;99494.16;4981332;28;101197;-82
2023/12/30 04:16:25;;;;;;;3.25;2.00;;;;;;;9.70;60.84;99502.81;5002435;28;101768;-83
2023/12/30 04:18:51;;;;;;;4.97;1.75;;;;;;;9.85;60.97;99510.00;4980757;28;96986;-83
2023/12/30 04:21:16;;;;;;;3.63;1.58;;;;;;;9.94;60.54;99506.13;4987841;28;96886;-83
2023/12/30 04:23:42;;;;;;;3.20;1.67;;;;;;;9.99;59.90;99509.38;5006376;28;101403;-83
2023/12/30 04:26:07;;;;;;;2.75;1.38;;;;;;;9.99;59.85;99512.00;5006732;28;97691;-82
2023/12/30 04:28:33;;;;;;;3.45;1.85;;;;;;;10.00;59.82;99512.84;5003819;28;96857;-82
2023/12/30 04:30:59;;;;;;;2.88;1.60;;;;;;;10.06;59.27;99525.69;5002863;28;96945;-83
2023/12/30 04:33:25;;;;;;;3.38;1.48;;;;;;;10.05;59.39;99524.84;5017312;28;97682;-83
2023/12/30 04:35:50;;;;;;;4.63;1.80;;;;;;;10.05;59.10;99531.88;4984537;28;100932;-83
2023/12/30 04:38:18;;;;;;;1.63;1.33;;;;;;;10.16;58.65;99529.63;4999231;28;97256;-83
2023/12/30 04:40:44;;;;;;;2.58;1.30;;;;;;;10.20;59.10;99531.16;4997216;28;96857;-83
2023/12/30 04:43:09;;;;;;;3.05;1.40;;;;;;;10.28;58.81;99542.22;5005333;28;100058;-83
2023/12/30 04:45:35;;;;;;;3.15;1.48;;;;;;;10.25;59.61;99559.84;5003643;28;100166;-83
2023/12/30 04:48:00;;;;;;;2.75;1.50;;;;;;;10.17;60.95;99568.88;5007349;28;96880;-83
2023/12/30 04:50:27;;;;;;;2.22;1.33;;;;;;;10.19;62.14;99587.19;5006105;27;96933;-82
2023/12/30 04:52:53;;;;;;;1.95;1.33;;;;;;;10.33;62.38;99595.31;5017993;27;97322;-82
2023/12/30 04:55:18;;;;;;;4.05;1.42;;;;;;;10.30;63.18;99603.34;5017977;27;101067;-82
2023/12/30 04:57:47;;;;;;;2.38;1.27;;;;;;;10.30;63.69;99576.25;5014215;27;97374;-83
2023/12/30 05:00:15;;;;;;;4.43;1.52;;;;;;;10.25;64.09;99579.03;5019147;27;96923;-82
2023/12/30 05:02:41;;;;;;;2.03;1.17;;;;;;;10.39;63.86;99586.34;5008805;27;101032;-82
2023/12/30 05:05:06;;;;;;;2.22;1.20;;;;;;;10.36;64.42;99600.44;5033564;27;97965;-82
2023/12/30 05:07:32;;;;;;;1.67;1.13;;;;;;;10.42;64.77;99618.53;5034293;27;97194;-82
2023/12/30 05:09:57;;;;;;;1.58;1.00;;;;;;;10.43;64.98;99614.13;5018492;27;96953;-81
2023/12/30 05:12:23;;;;;;;3.03;1.00;;;;;;;10.37;64.99;99583.75;5034751;27;101388;-81
2023/12/30 05:14:48;;;;;;;1.77;0.80;;;;;;;10.44;65.15;99597.44;5001425;27;101434;-81
2023/12/30 05:17:14;;;;;;;1.48;1.00;;;;;;;10.30;65.65;99579.72;5034937;27;97132;-81
2023/12/30 05:19:39;;;;;;;6.70;0.70;;;;;;;10.18;65.99;99574.97;5031074;27;96955;-81
2023/12/30 05:22:05;;;;;;;1.80;0.82;;;;;;;10.43;65.72;99590.50;5014809;27;101602;-82
2023/12/30 05:24:31;;;;;;;1.75;1.10;;;;;;;10.40;65.33;99575.75;5027744;27;97830;-82
2023/12/30 05:26:56;;;;;;;1.67;0.65;;;;;;;10.42;65.29;99581.78;5016620;27;96809;-81
2023/12/30 05:29:22;;;;;;;1.65;0.80;;;;;;;10.34;65.17;99586.53;5016664;27;96878;-82
2023/12/30 05:31:48;;;;;;;1.15;0.80;;;;;;;10.23;65.50;99577.41;5012156;27;101598;-81
2023/12/30 05:34:13;;;;;;;1.95;0.77;;;;;;;10.18;65.21;99578.47;5029934;27;97301;-82
2023/12/30 05:36:39;;;;;;;1.60;0.82;;;;;;;10.20;65.40;99573.97;5034230;27;96865;-82
2023/12/30 05:39:04;;;;;;;1.30;0.70;;;;;;;10.05;65.34;99543.19;5028718;27;97418;-83
2023/12/30 05:41:30;;;;;;;2.08;0.93;;;;;;;10.03;65.64;99560.75;5022213;27;99492;-82
2023/12/30 05:43:55;;;;;;;1.73;0.85;;;;;;;10.16;64.84;99564.56;4999781;27;101186;-82
2023/12/30 05:46:21;;;;;;;2.90;1.00;;;;;;;10.15;64.95;99562.88;5032106;27;96844;-82
2023/12/30 05:48:46;;;;;;;1.30;0.75;;;;;;;10.18;64.84;99567.97;5032826;27;96842;-82
2023/12/30 05:51:12;;;;;;;1.05;0.70;;;;;;;10.14;64.96;99570.78;5030950;27;97413;-82
2023/12/30 05:53:39;;;;;;;4.00;0.88;;;;;;;10.16;64.82;99569.81;5000916;27;101347;-82
2023/12/30 05:56:05;;;;;;;1.38;0.93;;;;;;;10.02;64.68;99566.94;5016575;27;96858;-82
2023/12/30 05:58:30;;;;;;;2.00;0.70;;;;;;;10.15;64.88;99594.34;5043920;27;96978;-82
2023/12/30 06:00:56;;;;;;;1.23;0.73;;;;;;;10.15;64.81;99601.34;5036197;27;100999;-82
2023/12/30 06:03:21;;;;;;;1.20;0.80;;;;;;;10.06;64.97;99592.09;5017085;27;100927;-82
2023/12/30 06:05:47;;;;;;;1.90;1.00;;;;;;;10.07;64.79;99578.09;5017788;27;97267;-82
2023/12/30 06:08:12;;;;;;;3.88;1.55;;;;;;;10.04;64.67;99574.75;5017469;27;97187;-82
2023/12/30 06:10:38;;;;;;;3.20;1.42;;;;;;;9.94;64.55;99582.13;5027173;27;97450;-83
2023/12/30 06:13:03;;;;;;;1.88;1.17;;;;;;;9.88;64.54;99593.75;5006742;27;101171;-82
2023/12/30 06:15:29;;;;;;;2.45;1.60;;;;;;;9.88;64.14;99567.53;5048095;27;96797;-82
2023/12/30 06:17:54;;;;;;;3.20;1.40;;;;;;;9.80;64.20;99568.78;5011701;27;96968;-81
2023/12/30 06:20:21;;;;;;;2.42;1.15;;;;;;;9.84;64.02;99586.94;5030593;27;97593;-82
2023/12/30 06:22:46;;;;;;;3.85;1.30;;;;;;;9.67;64.12;99592.03;5019615;27;101636;-83
2023/12/30 06:25:12;;;;;;;2.97;1.20;;;;;;;9.74;64.14;99594.34;5021046;27;97260;-82
2023/12/30 06:27:37;;;;;;;2.00;1.50;;;;;;;9.77;63.94;99587.25;5003210;27;96841;-83
2023/12/30 06:30:04;;;;;;;4.70;1.67;;;;;;;9.71;64.33;99598.84;5007315;27;97426;-83
2023/12/30 06:32:30;;;;;;;4.10;2.17;;;;;;;9.65;64.66;99605.19;5026053;28;97842;-82
2023/12/30 06:34:55;;;;;;;3.47;2.08;;;;;;;9.73;64.67;99620.59;5017833;27;97263;-83
2023/12/30 06:37:21;;;;;;;3.25;1.58;;;;;;;9.82;64.37;99622.00;5034871;27;96973;-82
2023/12/30 06:39:46;;;;;;;3.22;1.60;;;;;;;9.98;63.77;99649.28;5017748;27;100757;-82
2023/12/30 06:42:12;;;;;;;3.88;1.38;;;;;;;10.11;63.58;99653.06;5020115;27;101085;-82
2023/12/30 06:44:38;;;;;;;3.83;1.60;;;;;;;9.95;64.01;99646.78;5019993;27;96742;-82
2023/12/30 06:47:05;;;;;;;3.42;1.70;;;;;;;9.91;64.13;99651.28;5020801;27;96752;-82
2023/12/30 06:49:30;;;;;;;2.90;1.52;;;;;;;9.58;64.00;99634.34;5020702;27;97489;-82
2023/12/30 06:51:56;;;;;;;3.97;1.58;;;;;;;9.73;63.62;99649.44;5019806;27;100982;-82
2023/12/30 06:54:22;;;;;;;2.08;1.35;;;;;;;9.79;64.09;99666.69;5017617;27;96778;-81
2023/12/30 06:56:49;;;;;;;7.40;2.03;;;;;;;9.72;63.97;99664.31;5010714;27;97290;-82
2023/12/30 06:59:16;;;;;;;1.88;1.30;;;;;;;9.65;63.41;99657.59;5037536;27;98151;-82
2023/12/30 07:01:41;;;;;;;3.22;1.23;;;;;;;9.50;63.19;99659.06;5020308;28;100826;-82
2023/12/30 07:04:07;;;;;;;2.08;0.75;;;;;;;9.50;63.63;99669.56;4997306;27;97314;-83
2023/12/30 07:06:33;;;;;;;1.85;1.10;;;;;;;9.50;63.69;99676.56;5028470;27;97735;-82
2023/12/30 07:08:58;;;;;;;2.38;0.80;;;;;;;9.51;63.44;99704.47;5019913;27;97971;-82
2023/12/30 07:11:24;;;;;;;2.25;1.10;;;;;;;9.45;63.90;99710.81;5030016;27;97995;-82
2023/12/30 07:13:49;;;;;;;2.45;0.85;;;;;;;9.51;64.08;99756.88;5031883;27;96746;-82
2023/12/30 07:16:18;;;;;;;0.93;0.60;;;;;;;9.42;63.56;99734.50;5036940;27;97217;-83
2023/12/30 07:18:44;;;;;;;1.20;0.57;;;;;;;9.45;63.36;99773.69;5020157;27;100733;-82
2023/12/30 07:21:09;;;;;;;3.38;0.50;;;;;;;9.45;63.58;99786.81;5020077;27;101075;-83
2023/12/30 07:23:35;;;;;;;1.48;0.70;;;;;;;9.41;63.19;99806.16;5019738;27;97108;-82
2023/12/30 07:26:00;;;;;;;1.17;0.55;;;;;;;9.43;63.11;99804.34;5037481;27;96940;-82
2023/12/30 07:28:26;;;;;;;0.45;0.45;;;;;;;9.40;63.57;99819.31;5016445;28;97678;-82
2023/12/30 07:30:51;;;;;;;0.38;0.32;;;;;;;9.46;63.60;99816.47;5016835;28;100812;-82
2023/12/30 07:33:17;;;;;;;0.88;0.73;;;;;;;9.56;63.27;99824.81;5036110;27;97265;-81
2023/12/30 07:35:42;;;;;;;3.65;0.88;;;;;;;9.56;63.29;99843.16;5014310;28;97275;-81
2023/12/30 07:38:08;;;;;;;0.52;0.38;;;;;;;9.63;63.27;99840.28;5015969;27;101974;-81
2023/12/30 07:40:33;;;;;;;2.15;0.90;;;;;;;9.66;63.67;99832.28;5013614;27;97312;-81
2023/12/30 07:42:59;;;;;;;2.05;0.90;;;;;;;9.70;63.59;99825.16;5033672;27;96701;-82
2023/12/30 07:45:24;;;;;;;3.30;0.90;;;;;;;9.64;63.79;99830.63;5017515;28;96780;-81
2023/12/30 07:47:50;;;;;;;1.10;0.60;;;;;;;9.64;63.87;99831.50;5030847;27;101828;-81
2023/12/30 07:50:16;;;;;;;1.77;0.60;;;;;;;9.65;64.16;99834.97;5020785;27;100786;-81
2023/12/30 07:52:42;;;;;;;0.75;0.57;;;;;;;9.65;64.10;99832.34;5002159;27;96802;-80
2023/12/30 07:55:08;;;;;;;0.40;0.40;;;;;;;9.48;65.08;99838.19;5020350;27;96793;-82
2023/12/30 07:57:34;;;;;;;1.48;0.65;;;;;;;9.53;64.25;99833.66;5017075;27;100855;-81
2023/12/30 08:00:00;;;;;;;1.08;0.70;;;;;;;9.56;64.07;99832.69;5037070;27;97545;-82
2023/12/30 08:02:25;;;;;;;0.90;0.68;;;;;;;9.63;63.63;99844.63;5021384;27;96891;-82
2023/12/30 08:04:50;;;;;;;1.27;0.95;;;;;;;9.60;63.46;99852.59;5014726;28;96851;-83
2023/12/30 08:07:16;;;;;;;2.15;0.60;;;;;;;9.63;63.14;99853.38;5013065;27;101086;-82
2023/12/30 08:09:42;;;;;;;1.02;0.80;;;;;;;9.68;62.91;99875.00;5034148;27;97951;-82
2023/12/30 08:12:07;;;;;;;1.25;0.88;;;;;;;9.56;62.95;99864.13;5018188;27;96848;-83
2023/12/30 08:14:34;;;;;;;1.23;0.85;;;;;;;9.53;63.23;99857.22;5016041;27;96870;-83
2023/12/30 08:16:59;;;;;;;1.10;0.68;;;;;;;9.55;62.90;99863.28;5018109;27;101456;-82
2023/12/30 08:19:25;;;;;;;2.08;1.08;;;;;;;9.51;63.32;99862.53;5032819;27;98204;-82
2023/12/30 08:21:50;;;;;;;3.28;0.68;;;;;;;9.20;63.98;99834.00;5035958;27;96772;-83
2023/12/30 08:24:19;;;;;;;0.68;0.50;;;;;;;9.27;63.81;99845.09;5003140;27;97014;-81
2023/12/30 08:26:44;;;;;;;0.90;0.55;;;;;;;9.05;64.33;99834.53;5011913;27;100864;-81
2023/12/30 08:29:10;;;;;;;1.75;0.93;;;;;;;8.92;63.55;99838.50;5017243;27;97414;-82
2023/12/30 08:31:35;;;;;;;3.70;0.70;;;;;;;8.84;63.37;99817.81;5015657;27;96784;-82
2023/12/30 08:34:01;;;;;;;2.05;0.75;;;;;;;8.76;63.79;99830.31;5036565;27;96800;-81
2023/12/30 08:36:28;;;;;;;1.13;0.60;;;;;;;8.94;63.04;99844.53;5019518;27;97958;-82
2023/12/30 08:38:54;;;;;;;3.47;1.00;;;;;;;9.22;63.27;99850.50;5018302;27;101014;-81
2023/12/30 08:41:24;;;;;;;1.63;0.68;;;;;;;9.17;63.40;99854.19;5015573;27;96870;-83
2023/12/30 08:43:52;;;;;;;3.22;0.60;;;;;;;9.34;63.47;99830.00;5014539;27;97208;-82
2023/12/30 08:46:18;;;;;;;1.77;0.70;;;;;;;10.05;62.60;99847.38;5028450;28;97431;-83
2023/12/30 08:48:43;;;;;;;1.27;0.60;;;;;;;10.26;62.09;99837.81;5050776;27;97668;-82
2023/12/30 08:51:11;;;;;;;0.68;0.55;;;;;;;10.44;61.44;99849.34;5017841;27;96897;-82
2023/12/30 08:53:37;;;;;;;2.58;0.70;;;;;;;10.78;60.35;99845.31;5018396;27;97131;-82
2023/12/30 08:56:03;;;;;;;1.38;0.93;;;;;;;11.39;59.73;99854.94;5015840;27;97718;-81
2023/12/30 08:58:28;;;;;;;0.77;0.57;;;;;;;11.48;58.80;99844.84;5044835;27;97396;-82
2023/12/30 09:00:54;;;;;;;1.48;0.82;;;;;;;11.92;58.11;99870.91;5018351;27;96904;-82
2023/12/30 09:03:19;;;;;;;1.25;0.70;;;;;;;11.76;57.79;99865.50;5008799;28;96652;-83
2023/12/30 09:05:45;;;;;;;1.45;0.80;;;;;;;11.15;59.06;99872.66;5014350;27;98313;-82
2023/12/30 09:08:10;;;;;;;2.80;1.10;;;;;;;10.88;59.52;99870.28;5032808;27;101215;-83
2023/12/30 09:10:38;;;;;;;1.73;0.77;;;;;;;10.63;60.23;99866.06;5032940;27;96876;-83
2023/12/30 09:13:03;;;;;;;1.10;0.85;;;;;;;10.70;60.07;99884.16;5023726;27;96976;-82
2023/12/30 09:15:29;;;;;;;3.15;1.15;;;;;;;10.98;59.50;99889.97;5000257;28;100985;-83
2023/12/30 09:17:57;;;;;;;3.00;1.00;;;;;;;11.33;58.62;99877.94;5026522;27;98045;-83
2023/12/30 09:20:23;;;;;;;1.80;1.15;;;;;;;11.69;58.34;99884.25;5017499;27;97059;-82
2023/12/30 09:22:48;;;;;;;0.88;0.75;;;;;;;11.23;58.07;99886.31;5033026;27;97178;-82
2023/12/30 09:25:13;;;;;;;2.20;0.93;;;;;;;10.78;58.94;99889.97;5029928;27;100099;-82
2023/12/30 09:27:39;;;;;;;2.03;0.90;;;;;;;10.56;59.15;99896.09;5010161;27;97519;-83
2023/12/30 09:30:06;;;;;;;0.82;0.52;;;;;;;10.25;59.47;99890.34;5013937;27;96744;-82
2023/12/30 09:32:31;;;;;;;1.55;1.05;;;;;;;10.20;59.95;99898.38;5022248;27;97319;-82
2023/12/30 09:34:57;;;;;;;1.35;0.80;;;;;;;10.32;60.23;99910.19;5032922;27;98106;-82
2023/12/30 09:37:22;;;;;;;1.92;0.90;;;;;;;10.21;60.13;99907.97;5016728;27;100324;-81
2023/12/30 09:39:48;;;;;;;1.48;0.80;;;;;;;10.13;60.27;99895.16;5009655;27;96836;-81
2023/12/30 09:42:13;;;;;;;1.75;0.77;;;;;;;10.07;60.86;99902.41;5018623;27;97121;-82
2023/12/30 09:44:39;;;;;;;2.25;0.93;;;;;;;9.95;60.84;99901.97;5016143;28;99803;-79
2023/12/30 09:47:10;;;;;;;0.73;0.63;;;;;;;9.80;61.38;99915.63;5024481;27;97392;-73
2023/12/30 09:49:37;;;;;;;2.20;0.90;;;;;;;9.86;61.37;99912.81;5033613;27;96829;-74
2023/12/30 09:52:03;;;;;;;1.58;0.98;;;;;;;9.94;61.52;99902.00;5026298;27;98167;-80
2023/12/30 09:54:29;;;;;;;2.88;1.10;;;;;;;10.00;61.51;99899.16;5003266;28;101307;-78
2023/12/30 09:56:55;;;;;;;1.75;0.98;;;;;;;10.17;61.27;99906.38;5024297;27;97419;-79
2023/12/30 09:59:22;;;;;;;1.95;0.98;;;;;;;10.15;61.05;99906.44;5004423;28;97617;-80
2023/12/30 10:01:48;;;;;;;2.55;1.65;;;;;;;10.06;61.41;99909.41;5006318;28;97009;-78
2023/12/30 10:04:13;;;;;;;2.70;1.38;;;;;;;10.15;60.84;99909.06;5012753;28;97619;-80
2023/12/30 10:06:40;;;;;;;6.32;2.10;;;;;;;10.20;60.80;99907.09;5025309;28;97483;-79
2023/12/30 10:09:05;;;;;;;3.63;1.90;;;;;;;10.25;61.00;99901.69;5009159;28;96811;-80
2023/12/30 10:11:31;;;;;;;4.45;2.05;;;;;;;10.24;60.51;99920.09;5010717;28;97378;-80
2023/12/30 10:13:56;;;;;;;7.80;1.73;;;;;;;10.25;60.38;99922.66;5027247;28;98028;-80
2023/12/30 10:16:23;;;;;;;3.88;1.80;;;;;;;10.41;60.00;99922.94;5007857;28;98243;-79
2023/12/30 10:18:49;;;;;;;2.85;1.45;;;;;;;10.42;60.26;99912.41;5009886;28;96796;-78
2023/12/30 10:21:16;;;;;;;3.15;1.58;;;;;;;10.52;59.83;99909.41;5013382;28;96870;-80
2023/12/30 10:23:42;;;;;;;4.47;1.92;;;;;;;10.61;59.52;99907.25;5025655;28;97404;-80
2023/12/30 10:26:08;;;;;;;5.00;2.00;;;;;;;10.89;59.33;99911.38;5027273;28;97451;-86
2023/12/30 10:28:34;;;;;;;3.33;2.00;;;;;;;10.99;59.15;99911.84;5026644;28;98039;-80
2023/12/30 10:31:04;;;;;;;3.00;1.75;;;;;;;11.09;59.00;99908.75;5020885;28;97376;-80
2023/12/30 10:33:30;;;;;;;3.40;1.55;;;;;;;10.67;58.66;99889.53;5015073;28;98033;-80
2023/12/30 10:35:56;;;;;;;5.18;1.85;;;;;;;10.81;58.58;99902.97;5021619;28;97640;-79
2023/12/30 10:38:23;;;;;;;2.45;1.30;;;;;;;10.76;58.38;99916.28;5013849;28;97369;-78
2023/12/30 10:40:50;;;;;;;2.58;1.83;;;;;;;10.84;58.58;99929.94;5005426;28;96897;-78
2023/12/30 10:43:17;;;;;;;2.83;1.30;;;;;;;10.83;58.48;99924.75;5028833;28;97584;-80
2023/12/30 10:45:42;;;;;;;2.92;1.27;;;;;;;10.67;58.95;99927.16;5018064;28;97424;-79
2023/12/30 10:48:08;;;;;;;4.15;1.58;;;;;;;11.06;58.48;99926.44;5019729;28;96909;-78
2023/12/30 10:50:38;;;;;;;3.45;1.40;;;;;;;10.84;59.24;99923.84;5025893;27;96822;-80
2023/12/30 10:53:11;;;;;;;2.95;1.50;;;;;;;10.83;59.49;99935.28;5031893;27;97465;-78
2023/12/30 10:55:40;;;;;;;3.55;2.45;;;;;;;10.84;59.54;99936.97;5025729;27;97306;-80
2023/12/30 10:58:11;;;;;;;3.17;1.60;;;;;;;10.83;59.88;99943.16;5016235;27;96814;-80
2023/12/30 11:00:38;;;;;;;5.00;1.93;;;;;;;10.58;60.31;99932.78;5032501;27;96764;-80
2023/12/30 11:03:04;;;;;;;7.05;1.85;;;;;;;10.69;60.79;99948.09;5014991;27;98119;-80
2023/12/30 11:05:34;;;;;;;4.05;1.85;;;;;;;10.76;60.94;99957.41;5023544;27;98088;-80
2023/12/30 11:08:00;;;;;;;5.38;1.90;;;;;;;10.90;61.16;99967.38;5027936;27;96762;-81
2023/12/30 11:10:26;;;;;;;3.97;1.63;;;;;;;10.75;61.59;99969.69;5038437;27;97380;-79
2023/12/30 11:12:53;;;;;;;4.60;1.88;;;;;;;10.88;61.12;99952.53;5025219;27;97372;-80
2023/12/30 11:15:28;;;;;;;2.85;1.95;;;;;;;10.81;61.08;99961.56;5016758;27;97861;-78
2023/12/30 11:17:56;;;;;;;5.30;1.75;;;;;;;10.79;60.85;99949.41;4996510;27;97326;-80
2023/12/30 11:20:48;;;;;;;4.88;1.70;;;;;;;10.87;61.11;99953.44;5030270;27;96965;-80
2023/12/30 11:23:14;;;;;;;4.78;2.00;;;;;;;10.92;61.67;99973.41;5030722;27;97955;-78
2023/12/30 11:25:45;;;;;;;4.88;1.63;;;;;;;10.93;62.73;99943.59;5012931;27;101596;-79
2023/12/30 11:28:21;;;;;;;1.88;1.17;;;;;;;10.98;61.34;99946.91;5015146;27;96982;-80